sensor_id;sensor_type;location;lat;lon;timestamp;pressure;altitude;pressure_sealevel;temperature;humidity
54503;BME280;40411;50.090;21.954;2024-03-29T00:01:26;63489.16;;;13.83;79.52
54503;BME280;40411;50.090;21.954;2024-03-29T00:03:54;63506.03;;;13.72;81.38
54503;BME280;40411;50.090;21.954;2024-03-29T00:06:20;63459.22;;;13.82;80.38
54503;BME280;40411;50.090;21.954;2024-03-29T00:08:47;63402.47;;;13.93;80.30
54503;BME280;40411;50.090;21.954;2024-03-29T00:11:12;63495.59;;;13.87;80.15
54503;BME280;40411;50.090;21.954;2024-03-29T00:13:39;63484.91;;;13.82;81.49
54503;BME280;40411;50.090;21.954;2024-03-29T00:16:06;63472.88;;;13.83;81.80
54503;BME280;40411;50.090;21.954;2024-03-29T00:18:32;63384.00;;;13.91;81.77
54503;BME280;40411;50.090;21.954;2024-03-29T00:20:58;63378.56;;;14.00;81.51
54503;BME280;40411;50.090;21.954;2024-03-29T00:23:24;63223.31;;;14.47;80.50
54503;BME280;40411;50.090;21.954;2024-03-29T00:25:50;62963.88;;;15.17;76.79
54503;BME280;40411;50.090;21.954;2024-03-29T00:28:17;62923.72;;;15.29;76.28
54503;BME280;40411;50.090;21.954;2024-03-29T00:30:43;62769.38;;;15.59;75.31
54503;BME280;40411;50.090;21.954;2024-03-29T00:33:09;62807.31;;;15.60;75.20
54503;BME280;40411;50.090;21.954;2024-03-29T00:35:35;62792.53;;;15.59;75.65
54503;BME280;40411;50.090;21.954;2024-03-29T00:38:01;62886.00;;;15.33;76.29
54503;BME280;40411;50.090;21.954;2024-03-29T00:40:27;62791.03;;;15.62;75.28
54503;BME280;40411;50.090;21.954;2024-03-29T00:42:53;62846.69;;;15.38;76.66
54503;BME280;40411;50.090;21.954;2024-03-29T00:45:19;62832.44;;;15.37;77.62
54503;BME280;40411;50.090;21.954;2024-03-29T00:47:46;62917.09;;;15.17;77.69
54503;BME280;40411;50.090;21.954;2024-03-29T00:50:12;62917.50;;;15.13;79.11
54503;BME280;40411;50.090;21.954;2024-03-29T00:52:38;62693.47;;;15.52;78.10
54503;BME280;40411;50.090;21.954;2024-03-29T00:55:05;63220.78;;;14.20;83.89
54503;BME280;40411;50.090;21.954;2024-03-29T00:57:31;63211.38;;;14.21;84.72
54503;BME280;40411;50.090;21.954;2024-03-29T00:59:57;63273.00;;;13.70;88.65
54503;BME280;40411;50.090;21.954;2024-03-29T01:02:23;63294.31;;;13.51;91.22
54503;BME280;40411;50.090;21.954;2024-03-29T01:04:50;63377.94;;;13.31;93.51
54503;BME280;40411;50.090;21.954;2024-03-29T01:07:17;63425.91;;;13.12;95.81
54503;BME280;40411;50.090;21.954;2024-03-29T01:09:43;63307.06;;;13.28;95.82
54503;BME280;40411;50.090;21.954;2024-03-29T01:12:10;63255.91;;;13.34;95.42
54503;BME280;40411;50.090;21.954;2024-03-29T01:14:36;63435.75;;;12.96;98.16
54503;BME280;40411;50.090;21.954;2024-03-29T01:17:02;63196.41;;;13.55;96.34
54503;BME280;40411;50.090;21.954;2024-03-29T01:19:29;63348.59;;;13.06;99.07
54503;BME280;40411;50.090;21.954;2024-03-29T01:21:55;63266.22;;;13.29;98.62
54503;BME280;40411;50.090;21.954;2024-03-29T01:24:21;63177.84;;;13.50;97.79
54503;BME280;40411;50.090;21.954;2024-03-29T01:26:47;63269.41;;;13.17;100.00
54503;BME280;40411;50.090;21.954;2024-03-29T01:29:13;63310.19;;;13.02;100.00
54503;BME280;40411;50.090;21.954;2024-03-29T01:31:39;63390.59;;;12.69;100.00
54503;BME280;40411;50.090;21.954;2024-03-29T01:34:05;63460.38;;;12.36;100.00
54503;BME280;40411;50.090;21.954;2024-03-29T01:36:31;63573.06;;;12.04;100.00
54503;BME280;40411;50.090;21.954;2024-03-29T01:38:57;63608.28;;;12.08;100.00
54503;BME280;40411;50.090;21.954;2024-03-29T01:41:24;63734.34;;;11.65;100.00
54503;BME280;40411;50.090;21.954;2024-03-29T01:43:54;63853.28;;;11.39;100.00
54503;BME280;40411;50.090;21.954;2024-03-29T01:46:22;63904.34;;;11.16;100.00
54503;BME280;40411;50.090;21.954;2024-03-29T01:48:51;64082.28;;;10.75;100.00
54503;BME280;40411;50.090;21.954;2024-03-29T01:51:18;64104.16;;;10.47;100.00
54503;BME280;40411;50.090;21.954;2024-03-29T01:53:47;64182.59;;;10.23;100.00
54503;BME280;40411;50.090;21.954;2024-03-29T01:56:14;64107.47;;;10.50;100.00
54503;BME280;40411;50.090;21.954;2024-03-29T01:58:42;64083.59;;;10.52;100.00
54503;BME280;40411;50.090;21.954;2024-03-29T02:01:12;64268.84;;;9.92;100.00
54503;BME280;40411;50.090;21.954;2024-03-29T02:03:39;64333.41;;;9.57;100.00
54503;BME280;40411;50.090;21.954;2024-03-29T02:06:06;64341.63;;;9.55;100.00
54503;BME280;40411;50.090;21.954;2024-03-29T02:08:33;64351.44;;;9.38;100.00
54503;BME280;40411;50.090;21.954;2024-03-29T02:10:59;64492.34;;;9.02;100.00
54503;BME280;40411;50.090;21.954;2024-03-29T02:13:26;64476.69;;;9.09;100.00
54503;BME280;40411;50.090;21.954;2024-03-29T02:15:53;64488.84;;;8.97;100.00
54503;BME280;40411;50.090;21.954;2024-03-29T02:18:19;64569.28;;;8.70;100.00
54503;BME280;40411;50.090;21.954;2024-03-29T02:20:45;64590.66;;;8.78;100.00
54503;BME280;40411;50.090;21.954;2024-03-29T02:23:16;64538.03;;;8.77;100.00
54503;BME280;40411;50.090;21.954;2024-03-29T02:25:44;64503.38;;;8.95;100.00
54503;BME280;40411;50.090;21.954;2024-03-29T02:28:10;64454.06;;;8.98;100.00
54503;BME280;40411;50.090;21.954;2024-03-29T02:30:36;64489.56;;;9.00;100.00
54503;BME280;40411;50.090;21.954;2024-03-29T02:33:02;64457.75;;;9.06;100.00
54503;BME280;40411;50.090;21.954;2024-03-29T02:35:29;64484.06;;;8.87;100.00
54503;BME280;40411;50.090;21.954;2024-03-29T02:37:55;64538.75;;;8.80;100.00
54503;BME280;40411;50.090;21.954;2024-03-29T02:40:21;64492.25;;;8.85;100.00
54503;BME280;40411;50.090;21.954;2024-03-29T02:42:51;64464.84;;;8.96;100.00
54503;BME280;40411;50.090;21.954;2024-03-29T02:45:17;64411.94;;;9.38;100.00
54503;BME280;40411;50.090;21.954;2024-03-29T02:47:43;64429.19;;;9.16;100.00
54503;BME280;40411;50.090;21.954;2024-03-29T02:50:10;64496.63;;;9.04;100.00
54503;BME280;40411;50.090;21.954;2024-03-29T02:52:37;64434.72;;;9.28;100.00
54503;BME280;40411;50.090;21.954;2024-03-29T02:55:03;64374.84;;;9.45;100.00
54503;BME280;40411;50.090;21.954;2024-03-29T02:57:29;64410.72;;;9.28;100.00
54503;BME280;40411;50.090;21.954;2024-03-29T02:59:55;64435.19;;;9.12;100.00
54503;BME280;40411;50.090;21.954;2024-03-29T03:02:21;64461.19;;;9.19;100.00
54503;BME280;40411;50.090;21.954;2024-03-29T03:04:47;64300.66;;;9.58;100.00
54503;BME280;40411;50.090;21.954;2024-03-29T03:07:13;64361.03;;;9.49;100.00
54503;BME280;40411;50.090;21.954;2024-03-29T03:09:58;64366.75;;;9.57;100.00
54503;BME280;40411;50.090;21.954;2024-03-29T03:12:43;64365.53;;;9.46;100.00
54503;BME280;40411;50.090;21.954;2024-03-29T03:15:09;64399.25;;;9.44;100.00
54503;BME280;40411;50.090;21.954;2024-03-29T03:17:35;64338.56;;;9.65;100.00
54503;BME280;40411;50.090;21.954;2024-03-29T03:20:01;64295.25;;;9.97;100.00
54503;BME280;40411;50.090;21.954;2024-03-29T03:22:27;64394.38;;;9.49;100.00
54503;BME280;40411;50.090;21.954;2024-03-29T03:24:53;64405.81;;;9.64;100.00
54503;BME280;40411;50.090;21.954;2024-03-29T03:27:19;64368.97;;;9.59;100.00
54503;BME280;40411;50.090;21.954;2024-03-29T03:29:46;64344.19;;;9.62;100.00
54503;BME280;40411;50.090;21.954;2024-03-29T03:32:12;64345.72;;;9.78;100.00
54503;BME280;40411;50.090;21.954;2024-03-29T03:34:38;64286.69;;;9.94;100.00
54503;BME280;40411;50.090;21.954;2024-03-29T03:37:04;64362.97;;;9.63;100.00
54503;BME280;40411;50.090;21.954;2024-03-29T03:39:30;64284.66;;;10.11;100.00
54503;BME280;40411;50.090;21.954;2024-03-29T03:41:56;64381.78;;;9.39;100.00
54503;BME280;40411;50.090;21.954;2024-03-29T03:44:21;64400.38;;;9.45;100.00
54503;BME280;40411;50.090;21.954;2024-03-29T03:46:51;64408.44;;;9.33;100.00
54503;BME280;40411;50.090;21.954;2024-03-29T03:49:17;64444.19;;;9.30;100.00
54503;BME280;40411;50.090;21.954;2024-03-29T03:51:43;64394.16;;;9.53;100.00
54503;BME280;40411;50.090;21.954;2024-03-29T03:54:09;64333.97;;;9.58;100.00
54503;BME280;40411;50.090;21.954;2024-03-29T03:56:35;64351.06;;;9.64;100.00
54503;BME280;40411;50.090;21.954;2024-03-29T03:59:01;64329.78;;;9.90;100.00
54503;BME280;40411;50.090;21.954;2024-03-29T04:01:28;64341.06;;;9.55;100.00
54503;BME280;40411;50.090;21.954;2024-03-29T04:03:54;64337.78;;;9.69;100.00
54503;BME280;40411;50.090;21.954;2024-03-29T04:06:20;64354.09;;;9.79;100.00
54503;BME280;40411;50.090;21.954;2024-03-29T04:08:46;64253.44;;;9.87;100.00
54503;BME280;40411;50.090;21.954;2024-03-29T04:11:12;64312.16;;;9.83;100.00
54503;BME280;40411;50.090;21.954;2024-03-29T04:13:38;64389.16;;;9.73;100.00
54503;BME280;40411;50.090;21.954;2024-03-29T04:16:06;64371.03;;;9.58;100.00
54503;BME280;40411;50.090;21.954;2024-03-29T04:18:33;64332.44;;;9.83;100.00
54503;BME280;40411;50.090;21.954;2024-03-29T04:21:00;64293.25;;;9.90;100.00
54503;BME280;40411;50.090;21.954;2024-03-29T04:23:27;64293.16;;;9.80;100.00
54503;BME280;40411;50.090;21.954;2024-03-29T04:25:57;64362.53;;;9.72;100.00
54503;BME280;40411;50.090;21.954;2024-03-29T04:28:25;64345.13;;;9.61;100.00
54503;BME280;40411;50.090;21.954;2024-03-29T04:30:57;64362.97;;;9.63;100.00
54503;BME280;40411;50.090;21.954;2024-03-29T04:33:24;64343.72;;;9.72;100.00
54503;BME280;40411;50.090;21.954;2024-03-29T04:36:04;64311.88;;;9.71;100.00
54503;BME280;40411;50.090;21.954;2024-03-29T04:38:31;64319.97;;;9.83;100.00
54503;BME280;40411;50.090;21.954;2024-03-29T04:40:58;64269.63;;;9.88;100.00
54503;BME280;40411;50.090;21.954;2024-03-29T04:43:26;64336.69;;;9.68;100.00
54503;BME280;40411;50.090;21.954;2024-03-29T04:46:10;64368.66;;;9.54;100.00
54503;BME280;40411;50.090;21.954;2024-03-29T04:48:37;64353.78;;;9.50;100.00
54503;BME280;40411;50.090;21.954;2024-03-29T04:51:04;64332.56;;;9.69;100.00
54503;BME280;40411;50.090;21.954;2024-03-29T04:53:31;64430.75;;;9.39;100.00
54503;BME280;40411;50.090;21.954;2024-03-29T04:55:57;64376.28;;;9.51;100.00
54503;BME280;40411;50.090;21.954;2024-03-29T04:58:27;64389.84;;;9.59;100.00
54503;BME280;40411;50.090;21.954;2024-03-29T05:00:55;64442.31;;;9.33;100.00
54503;BME280;40411;50.090;21.954;2024-03-29T05:03:21;64343.03;;;9.45;100.00
54503;BME280;40411;50.090;21.954;2024-03-29T05:05:50;64423.75;;;9.28;100.00
54503;BME280;40411;50.090;21.954;2024-03-29T05:08:16;64423.09;;;9.42;100.00
54503;BME280;40411;50.090;21.954;2024-03-29T05:10:46;64409.13;;;9.43;100.00
54503;BME280;40411;50.090;21.954;2024-03-29T05:13:12;64406.69;;;9.46;100.00
54503;BME280;40411;50.090;21.954;2024-03-29T05:15:38;64428.06;;;9.22;100.00
54503;BME280;40411;50.090;21.954;2024-03-29T05:18:04;64414.53;;;9.38;100.00
54503;BME280;40411;50.090;21.954;2024-03-29T05:20:31;64414.53;;;9.38;100.00
54503;BME280;40411;50.090;21.954;2024-03-29T05:23:00;64326.22;;;9.51;100.00
54503;BME280;40411;50.090;21.954;2024-03-29T05:25:26;64354.94;;;9.44;100.00
54503;BME280;40411;50.090;21.954;2024-03-29T05:27:52;64412.09;;;9.41;100.00
54503;BME280;40411;50.090;21.954;2024-03-29T05:30:19;64339.13;;;9.65;100.00
54503;BME280;40411;50.090;21.954;2024-03-29T05:32:45;64295.72;;;9.88;100.00
54503;BME280;40411;50.090;21.954;2024-03-29T05:35:11;64313.72;;;9.75;100.00
54503;BME280;40411;50.090;21.954;2024-03-29T05:37:39;64282.13;;;10.04;100.00
54503;BME280;40411;50.090;21.954;2024-03-29T05:40:06;64265.59;;;10.15;99.95
54503;BME280;40411;50.090;21.954;2024-03-29T05:42:33;64280.22;;;9.90;99.89
54503;BME280;40411;50.090;21.954;2024-03-29T05:45:00;64302.34;;;9.94;98.77
54503;BME280;40411;50.090;21.954;2024-03-29T05:47:26;64259.44;;;10.17;97.92
54503;BME280;40411;50.090;21.954;2024-03-29T05:49:53;64276.44;;;10.13;97.63
54503;BME280;40411;50.090;21.954;2024-03-29T05:52:19;64273.69;;;10.27;96.67
54503;BME280;40411;50.090;21.954;2024-03-29T05:54:46;64234.06;;;10.37;96.19
54503;BME280;40411;50.090;21.954;2024-03-29T05:57:12;64145.28;;;10.80;94.99
54503;BME280;40411;50.090;21.954;2024-03-29T05:59:41;64299.47;;;10.22;95.07
54503;BME280;40411;50.090;21.954;2024-03-29T06:02:07;64134.81;;;10.80;94.06
54503;BME280;40411;50.090;21.954;2024-03-29T06:04:33;64191.69;;;10.70;93.39
54503;BME280;40411;50.090;21.954;2024-03-29T06:07:00;64267.44;;;10.53;93.72
54503;BME280;40411;50.090;21.954;2024-03-29T06:09:26;64258.88;;;10.50;92.71
54503;BME280;40411;50.090;21.954;2024-03-29T06:11:56;64197.66;;;10.83;91.39
54503;BME280;40411;50.090;21.954;2024-03-29T06:14:23;64096.19;;;11.17;90.51
54503;BME280;40411;50.090;21.954;2024-03-29T06:17:08;64073.09;;;11.25;90.03
54503;BME280;40411;50.090;21.954;2024-03-29T06:19:54;64042.88;;;11.35;88.88
54503;BME280;40411;50.090;21.954;2024-03-29T06:22:25;64115.44;;;11.15;87.91
54503;BME280;40411;50.090;21.954;2024-03-29T06:24:59;64063.09;;;11.42;87.61
54503;BME280;40411;50.090;21.954;2024-03-29T06:27:31;63929.22;;;11.90;86.27
54503;BME280;40411;50.090;21.954;2024-03-29T06:30:00;64121.44;;;11.38;85.81
54503;BME280;40411;50.090;21.954;2024-03-29T06:32:26;64042.91;;;11.74;85.27
54503;BME280;40411;50.090;21.954;2024-03-29T06:34:52;63943.25;;;11.98;85.23
54503;BME280;40411;50.090;21.954;2024-03-29T06:37:18;63826.88;;;12.36;83.69
54503;BME280;40411;50.090;21.954;2024-03-29T06:39:48;63841.38;;;12.23;81.87
54503;BME280;40411;50.090;21.954;2024-03-29T06:42:14;63804.91;;;12.47;82.25
54503;BME280;40411;50.090;21.954;2024-03-29T06:44:40;63967.19;;;12.16;80.08
54503;BME280;40411;50.090;21.954;2024-03-29T06:47:07;63931.91;;;12.22;82.00
54503;BME280;40411;50.090;21.954;2024-03-29T06:49:34;63960.41;;;12.26;79.19
54503;BME280;40411;50.090;21.954;2024-03-29T06:52:00;63938.44;;;12.47;77.93
54503;BME280;40411;50.090;21.954;2024-03-29T06:54:28;63946.41;;;12.60;77.34
54503;BME280;40411;50.090;21.954;2024-03-29T06:56:54;63888.78;;;12.60;77.11
54503;BME280;40411;50.090;21.954;2024-03-29T06:59:21;63910.13;;;12.67;75.53
54503;BME280;40411;50.090;21.954;2024-03-29T07:01:47;63825.06;;;12.95;76.63
54503;BME280;40411;50.090;21.954;2024-03-29T07:04:19;63712.53;;;13.32;73.95
54503;BME280;40411;50.090;21.954;2024-03-29T07:06:45;63659.03;;;13.44;73.90
54503;BME280;40411;50.090;21.954;2024-03-29T07:09:14;63688.94;;;13.45;73.68
54503;BME280;40411;50.090;21.954;2024-03-29T07:11:40;63728.41;;;13.47;72.67
54503;BME280;40411;50.090;21.954;2024-03-29T07:14:06;63696.81;;;13.45;71.61
54503;BME280;40411;50.090;21.954;2024-03-29T07:16:32;63337.84;;;14.34;71.74
54503;BME280;40411;50.090;21.954;2024-03-29T07:18:59;63422.31;;;14.31;70.85
54503;BME280;40411;50.090;21.954;2024-03-29T07:21:25;63517.50;;;14.22;68.71
54503;BME280;40411;50.090;21.954;2024-03-29T07:23:51;63419.00;;;14.41;69.13
54503;BME280;40411;50.090;21.954;2024-03-29T07:26:17;63530.03;;;14.46;66.19
54503;BME280;40411;50.090;21.954;2024-03-29T07:28:43;63439.81;;;14.63;65.25
54503;BME280;40411;50.090;21.954;2024-03-29T07:31:09;63675.78;;;14.28;62.07
54503;BME280;40411;50.090;21.954;2024-03-29T07:33:36;63609.81;;;14.45;63.13
54503;BME280;40411;50.090;21.954;2024-03-29T07:36:02;63509.34;;;14.54;62.87
54503;BME280;40411;50.090;21.954;2024-03-29T07:38:29;63215.81;;;15.19;64.13
54503;BME280;40411;50.090;21.954;2024-03-29T07:40:55;63248.41;;;15.35;60.56
54503;BME280;40411;50.090;21.954;2024-03-29T07:43:25;63270.53;;;15.36;60.34
54503;BME280;40411;50.090;21.954;2024-03-29T07:45:51;62858.38;;;16.24;58.89
54503;BME280;40411;50.090;21.954;2024-03-29T07:48:18;62061.72;;;17.74;53.57
54503;BME280;40411;50.090;21.954;2024-03-29T07:50:45;61100.97;;;19.44;49.60
54503;BME280;40411;50.090;21.954;2024-03-29T07:53:11;60686.84;;;20.31;45.54
54503;BME280;40411;50.090;21.954;2024-03-29T07:55:39;59277.50;;;21.93;42.31
54503;BME280;40411;50.090;21.954;2024-03-29T07:58:05;59702.06;;;21.69;41.66
54503;BME280;40411;50.090;21.954;2024-03-29T08:00:32;60463.88;;;20.98;41.14
54503;BME280;40411;50.090;21.954;2024-03-29T08:03:01;59168.72;;;22.15;41.11
54503;BME280;40411;50.090;21.954;2024-03-29T08:05:28;58916.13;;;22.22;42.77
54503;BME280;40411;50.090;21.954;2024-03-29T08:07:54;60068.66;;;21.40;40.05
54503;BME280;40411;50.090;21.954;2024-03-29T08:10:21;59574.09;;;21.84;40.45
54503;BME280;40411;50.090;21.954;2024-03-29T08:12:47;59995.81;;;21.29;41.86
54503;BME280;40411;50.090;21.954;2024-03-29T08:15:14;59263.91;;;21.77;43.36
54503;BME280;40411;50.090;21.954;2024-03-29T08:17:40;59911.72;;;21.69;38.96
54503;BME280;40411;50.090;21.954;2024-03-29T08:20:06;57955.03;;;23.48;37.85
54503;BME280;40411;50.090;21.954;2024-03-29T08:22:33;58255.97;;;23.35;36.99
54503;BME280;40411;50.090;21.954;2024-03-29T08:24:59;57380.38;;;24.12;35.80
54503;BME280;40411;50.090;21.954;2024-03-29T08:27:27;57829.00;;;23.55;37.51
54503;BME280;40411;50.090;21.954;2024-03-29T08:29:53;57979.78;;;23.13;40.11
54503;BME280;40411;50.090;21.954;2024-03-29T08:32:20;58867.28;;;22.43;39.74
54503;BME280;40411;50.090;21.954;2024-03-29T08:34:46;58986.44;;;22.29;39.99
54503;BME280;40411;50.090;21.954;2024-03-29T08:37:13;59892.38;;;21.45;40.54
54503;BME280;40411;50.090;21.954;2024-03-29T08:39:39;59817.50;;;21.47;40.64
54503;BME280;40411;50.090;21.954;2024-03-29T08:42:05;59417.22;;;21.66;42.02
54503;BME280;40411;50.090;21.954;2024-03-29T08:44:32;58488.38;;;22.82;39.24
54503;BME280;40411;50.090;21.954;2024-03-29T08:46:59;60297.25;;;21.23;40.60
54503;BME280;40411;50.090;21.954;2024-03-29T08:49:29;58847.94;;;22.37;40.65
54503;BME280;40411;50.090;21.954;2024-03-29T08:51:58;58787.56;;;22.72;37.64
54503;BME280;40411;50.090;21.954;2024-03-29T08:54:26;57486.00;;;23.89;36.77
54503;BME280;40411;50.090;21.954;2024-03-29T08:56:53;57814.16;;;23.62;36.82
54503;BME280;40411;50.090;21.954;2024-03-29T08:59:19;58430.97;;;23.34;35.02
54503;BME280;40411;50.090;21.954;2024-03-29T09:01:46;57925.94;;;23.54;36.28
54503;BME280;40411;50.090;21.954;2024-03-29T09:04:15;58761.28;;;22.97;35.61
54503;BME280;40411;50.090;21.954;2024-03-29T09:06:42;58592.75;;;23.15;35.75
54503;BME280;40411;50.090;21.954;2024-03-29T09:09:08;58771.84;;;23.08;35.16
54503;BME280;40411;50.090;21.954;2024-03-29T09:11:34;57651.38;;;23.83;35.91
54503;BME280;40411;50.090;21.954;2024-03-29T09:14:00;58677.56;;;23.01;36.02
54503;BME280;40411;50.090;21.954;2024-03-29T09:16:28;59092.69;;;22.83;35.00
54503;BME280;40411;50.090;21.954;2024-03-29T09:18:56;58940.25;;;22.90;35.14
54503;BME280;40411;50.090;21.954;2024-03-29T09:21:22;58261.66;;;23.87;32.47
54503;BME280;40411;50.090;21.954;2024-03-29T09:23:48;57639.38;;;24.51;31.65
54503;BME280;40411;50.090;21.954;2024-03-29T09:26:18;57242.72;;;24.35;34.37
54503;BME280;40411;50.090;21.954;2024-03-29T09:28:44;58999.53;;;23.47;31.28
54503;BME280;40411;50.090;21.954;2024-03-29T09:31:10;58918.97;;;23.11;34.11
54503;BME280;40411;50.090;21.954;2024-03-29T09:33:37;59014.63;;;23.33;32.61
54503;BME280;40411;50.090;21.954;2024-03-29T09:36:03;58877.50;;;23.20;34.14
54503;BME280;40411;50.090;21.954;2024-03-29T09:38:30;60018.75;;;22.07;34.21
54503;BME280;40411;50.090;21.954;2024-03-29T09:41:06;58698.41;;;23.09;35.26
54503;BME280;40411;50.090;21.954;2024-03-29T09:43:36;57490.63;;;24.18;34.66
54503;BME280;40411;50.090;21.954;2024-03-29T09:46:02;58637.44;;;23.33;34.29
54503;BME280;40411;50.090;21.954;2024-03-29T09:48:29;58928.91;;;23.24;33.39
54503;BME280;40411;50.090;21.954;2024-03-29T09:51:06;58533.78;;;23.77;32.14
54503;BME280;40411;50.090;21.954;2024-03-29T09:53:36;58916.66;;;23.14;33.92
54503;BME280;40411;50.090;21.954;2024-03-29T09:56:06;58899.00;;;23.85;29.54
54503;BME280;40411;50.090;21.954;2024-03-29T09:58:33;59483.56;;;23.28;30.19
54503;BME280;40411;50.090;21.954;2024-03-29T10:01:04;58068.59;;;24.16;31.90
54503;BME280;40411;50.090;21.954;2024-03-29T10:03:41;59158.53;;;23.49;30.37
54503;BME280;40411;50.090;21.954;2024-03-29T10:06:09;59768.56;;;22.78;31.46
54503;BME280;40411;50.090;21.954;2024-03-29T10:08:38;59682.19;;;22.85;31.63
54503;BME280;40411;50.090;21.954;2024-03-29T10:11:04;60211.66;;;22.38;31.07
54503;BME280;40411;50.090;21.954;2024-03-29T10:13:30;58103.66;;;24.33;30.65
54503;BME280;40411;50.090;21.954;2024-03-29T10:15:57;58256.16;;;24.22;30.71
54503;BME280;40411;50.090;21.954;2024-03-29T10:18:26;58236.34;;;24.16;31.04
54503;BME280;40411;50.090;21.954;2024-03-29T10:21:05;59195.53;;;23.33;31.28
54503;BME280;40411;50.090;21.954;2024-03-29T10:23:36;59468.91;;;23.11;30.68
54503;BME280;40411;50.090;21.954;2024-03-29T10:26:02;58785.38;;;23.70;30.74
54503;BME280;40411;50.090;21.954;2024-03-29T10:28:33;59768.81;;;23.00;30.21
54503;BME280;40411;50.090;21.954;2024-03-29T10:31:01;58493.59;;;23.98;31.23
54503;BME280;40411;50.090;21.954;2024-03-29T10:33:33;58909.16;;;23.85;30.02
54503;BME280;40411;50.090;21.954;2024-03-29T10:36:03;58925.31;;;23.72;30.59
54503;BME280;40411;50.090;21.954;2024-03-29T10:38:34;58858.06;;;24.03;29.00
54503;BME280;40411;50.090;21.954;2024-03-29T10:41:01;59155.72;;;23.73;29.07
54503;BME280;40411;50.090;21.954;2024-03-29T10:43:29;58115.91;;;24.56;29.42
54503;BME280;40411;50.090;21.954;2024-03-29T10:45:56;58284.28;;;24.24;30.32
54503;BME280;40411;50.090;21.954;2024-03-29T10:48:26;59625.41;;;22.94;31.11
54503;BME280;40411;50.090;21.954;2024-03-29T10:50:54;59648.28;;;23.33;28.68
54503;BME280;40411;50.090;21.954;2024-03-29T10:53:23;58874.19;;;24.01;29.09
54503;BME280;40411;50.090;21.954;2024-03-29T10:56:00;59593.56;;;23.56;27.91
54503;BME280;40411;50.090;21.954;2024-03-29T10:58:29;60082.41;;;22.89;29.16
54503;BME280;40411;50.090;21.954;2024-03-29T11:01:00;59618.47;;;23.46;28.45
54503;BME280;40411;50.090;21.954;2024-03-29T11:03:37;59804.91;;;23.14;29.31
54503;BME280;40411;50.090;21.954;2024-03-29T11:06:06;59704.66;;;23.20;29.35
54503;BME280;40411;50.090;21.954;2024-03-29T11:08:34;60386.88;;;22.24;31.02
54503;BME280;40411;50.090;21.954;2024-03-29T11:11:05;58974.88;;;23.71;30.70
54503;BME280;40411;50.090;21.954;2024-03-29T11:13:44;58888.50;;;23.83;30.17
54503;BME280;40411;50.090;21.954;2024-03-29T11:16:11;58951.56;;;23.69;30.87
54503;BME280;40411;50.090;21.954;2024-03-29T11:18:39;59856.38;;;22.75;31.36
54503;BME280;40411;50.090;21.954;2024-03-29T11:21:07;59603.34;;;22.88;31.91
54503;BME280;40411;50.090;21.954;2024-03-29T11:23:35;59229.94;;;23.14;32.04
54503;BME280;40411;50.090;21.954;2024-03-29T11:26:02;58876.84;;;23.82;30.39
54503;BME280;40411;50.090;21.954;2024-03-29T11:28:33;59634.63;;;22.90;31.44
54503;BME280;40411;50.090;21.954;2024-03-29T11:31:05;59515.97;;;22.67;33.19
54503;BME280;40411;50.090;21.954;2024-03-29T11:38:36;58583.03;;;23.81;31.70
54503;BME280;40411;50.090;21.954;2024-03-29T11:41:07;58932.47;;;23.57;31.07
54503;BME280;40411;50.090;21.954;2024-03-29T11:43:34;59465.38;;;22.94;32.11
54503;BME280;40411;50.090;21.954;2024-03-29T11:46:02;59562.66;;;22.82;32.75
54503;BME280;40411;50.090;21.954;2024-03-29T11:48:30;60379.72;;;21.94;33.22
54503;BME280;40411;50.090;21.954;2024-03-29T11:51:00;60082.84;;;22.28;32.78
54503;BME280;40411;50.090;21.954;2024-03-29T11:53:27;60149.88;;;22.08;33.48
54503;BME280;40411;50.090;21.954;2024-03-29T11:55:54;60385.78;;;22.05;32.83
54503;BME280;40411;50.090;21.954;2024-03-29T11:58:23;59418.31;;;23.00;32.24
54503;BME280;40411;50.090;21.954;2024-03-29T12:00:51;59814.56;;;22.71;31.89
54503;BME280;40411;50.090;21.954;2024-03-29T12:03:18;58901.72;;;23.45;32.26
54503;BME280;40411;50.090;21.954;2024-03-29T12:05:49;59696.59;;;22.96;30.90
54503;BME280;40411;50.090;21.954;2024-03-29T12:08:25;59637.38;;;23.01;31.23
54503;BME280;40411;50.090;21.954;2024-03-29T12:10:54;59706.91;;;22.78;32.22
54503;BME280;40411;50.090;21.954;2024-03-29T12:13:20;60504.72;;;22.07;31.66
54503;BME280;40411;50.090;21.954;2024-03-29T12:15:46;59673.41;;;22.65;33.34
54503;BME280;40411;50.090;21.954;2024-03-29T12:18:12;59675.84;;;22.70;33.16
54503;BME280;40411;50.090;21.954;2024-03-29T12:20:40;58617.63;;;23.81;32.25
54503;BME280;40411;50.090;21.954;2024-03-29T12:23:08;60017.69;;;22.53;32.06
54503;BME280;40411;50.090;21.954;2024-03-29T12:25:37;58904.34;;;23.56;32.26
54503;BME280;40411;50.090;21.954;2024-03-29T12:28:03;58743.84;;;23.71;31.92
54503;BME280;40411;50.090;21.954;2024-03-29T12:30:30;59529.19;;;22.94;32.78
54503;BME280;40411;50.090;21.954;2024-03-29T12:35:30;60294.31;;;22.46;31.00
54503;BME280;40411;50.090;21.954;2024-03-29T12:38:00;59766.84;;;22.95;31.25
54503;BME280;40411;50.090;21.954;2024-03-29T12:40:28;59847.41;;;22.88;31.13
54503;BME280;40411;50.090;21.954;2024-03-29T12:42:58;60041.59;;;22.69;31.37
54503;BME280;40411;50.090;21.954;2024-03-29T12:45:24;59930.50;;;22.99;30.13
54503;BME280;40411;50.090;21.954;2024-03-29T12:47:53;59484.38;;;23.45;30.16
54503;BME280;40411;50.090;21.954;2024-03-29T12:50:33;59451.81;;;23.12;31.91
54503;BME280;40411;50.090;21.954;2024-03-29T12:53:07;60488.38;;;22.43;30.73
54503;BME280;40411;50.090;21.954;2024-03-29T12:55:34;60707.25;;;22.00;31.52
54503;BME280;40411;50.090;21.954;2024-03-29T12:58:07;59947.97;;;22.71;31.63
54503;BME280;40411;50.090;21.954;2024-03-29T13:00:40;60411.75;;;22.46;30.12